Time;durP1;ratioP1;P1;durP2;ratioP2;P2;SDS_P1;SDS_P2;PMS_P1;PMS_P2;Temp;Humidity;BMP_temperature;BMP_pressure;BME280_temperature;BME280_humidity;BME280_pressure;Samples;Min_cycle;Max_cycle;Signal;HPM_P1;HPM_P2
2022/03/11 00:00:27;;;;;;;11.73;6.40;;;;;;;;;;4993446;28;20037;-86
2022/03/11 00:02:52;;;;;;;12.85;6.63;;;;;;;;;;5009822;28;20034;-89
2022/03/11 00:05:18;;;;;;;15.60;6.75;;;;;;;;;;4982389;28;20053;-84
2022/03/11 00:07:43;;;;;;;11.80;6.80;;;;;;;;;;4986626;28;20034;-88
2022/03/11 00:10:09;;;;;;;12.93;6.47;;;;;;;;;;4983641;28;20033;-84
2022/03/11 00:12:37;;;;;;;11.40;6.68;;;;;;;;;;4984081;28;20033;-86
2022/03/11 00:15:02;;;;;;;12.10;6.78;;;;;;;;;;4999139;28;20026;-84
2022/03/11 00:17:28;;;;;;;12.02;6.78;;;;;;;;;;4982650;28;20038;-83
2022/03/11 00:19:53;;;;;;;18.30;7.38;;;;;;;;;;4981691;28;20192;-83
2022/03/11 00:22:18;;;;;;;12.57;7.22;;;;;;;;;;4978983;28;20031;-86
2022/03/11 00:24:44;;;;;;;12.80;6.70;;;;;;;;;;4984321;28;20026;-89
2022/03/11 00:27:09;;;;;;;13.63;7.05;;;;;;;;;;4982292;28;20033;-85
2022/03/11 00:29:34;;;;;;;13.00;7.00;;;;;;;;;;4981774;28;20889;-85
2022/03/11 00:32:00;;;;;;;13.75;7.15;;;;;;;;;;4993017;28;20088;-86
2022/03/11 00:34:25;;;;;;;13.10;6.95;;;;;;;;;;5011886;28;20471;-83
2022/03/11 00:36:51;;;;;;;13.50;7.30;;;;;;;;;;4982406;28;20455;-85
2022/03/11 00:39:16;;;;;;;13.15;7.28;;;;;;;;;;4980450;28;20047;-84
2022/03/11 00:41:41;;;;;;;14.00;7.15;;;;;;;;;;4982713;28;20442;-84
2022/03/11 00:44:07;;;;;;;14.07;7.00;;;;;;;;;;5011972;28;20050;-85
2022/03/11 00:46:33;;;;;;;14.43;7.45;;;;;;;;;;5013388;28;20034;-85
2022/03/11 00:48:58;;;;;;;13.63;7.18;;;;;;;;;;4979102;28;20475;-86
2022/03/11 00:51:23;;;;;;;12.05;7.40;;;;;;;;;;5012498;28;20486;-88
2022/03/11 00:53:49;;;;;;;16.35;6.68;;;;;;;;;;5012273;28;20113;-88
2022/03/11 00:56:14;;;;;;;12.13;7.32;;;;;;;;;;4980046;28;20530;-86
2022/03/11 00:58:39;;;;;;;13.25;7.47;;;;;;;;;;5013366;28;20121;-87
2022/03/11 01:01:05;;;;;;;16.42;6.82;;;;;;;;;;4994902;28;20042;-87
2022/03/11 01:03:30;;;;;;;10.65;6.20;;;;;;;;;;5005818;28;20146;-85
2022/03/11 01:05:55;;;;;;;14.65;7.25;;;;;;;;;;4979181;28;20035;-87
2022/03/11 01:08:21;;;;;;;13.02;7.95;;;;;;;;;;5011876;28;20088;-86
2022/03/11 01:10:46;;;;;;;13.23;7.50;;;;;;;;;;5010770;28;20042;-86
2022/03/11 01:13:11;;;;;;;13.32;7.50;;;;;;;;;;4974954;28;20030;-88
2022/03/11 01:15:37;;;;;;;14.73;7.70;;;;;;;;;;4979178;28;20490;-89
2022/03/11 01:18:02;;;;;;;11.35;7.03;;;;;;;;;;4979218;28;20127;-89
2022/03/11 01:20:28;;;;;;;15.40;7.53;;;;;;;;;;4981192;28;20026;-87
2022/03/11 01:22:53;;;;;;;12.48;6.90;;;;;;;;;;4982075;28;20386;-86
2022/03/11 01:25:18;;;;;;;12.07;7.32;;;;;;;;;;4983938;28;20747;-84
2022/03/11 01:27:44;;;;;;;12.15;6.82;;;;;;;;;;4980915;28;20537;-89
2022/03/11 01:30:13;;;;;;;11.77;7.07;;;;;;;;;;4980748;28;20156;-84
2022/03/11 01:32:39;;;;;;;13.88;7.85;;;;;;;;;;4983429;28;20023;-86
2022/03/11 01:35:05;;;;;;;13.65;6.97;;;;;;;;;;4977574;28;20058;-84
2022/03/11 01:37:30;;;;;;;13.43;7.43;;;;;;;;;;4981604;28;20054;-86
2022/03/11 01:39:55;;;;;;;13.65;7.82;;;;;;;;;;4998832;28;20049;-85
2022/03/11 01:42:21;;;;;;;12.23;7.47;;;;;;;;;;4984102;28;20121;-83
2022/03/11 01:44:46;;;;;;;16.40;7.80;;;;;;;;;;5018917;28;20153;-87
2022/03/11 01:47:12;;;;;;;12.18;7.35;;;;;;;;;;4982837;28;20050;-83
2022/03/11 01:49:37;;;;;;;12.35;6.97;;;;;;;;;;4984045;28;20034;-85
2022/03/11 01:52:03;;;;;;;13.25;7.70;;;;;;;;;;5014390;28;20030;-83
2022/03/11 01:54:28;;;;;;;13.98;7.13;;;;;;;;;;4986936;28;20513;-84
2022/03/11 01:56:54;;;;;;;13.50;7.80;;;;;;;;;;5012483;28;20037;-86
2022/03/11 01:59:20;;;;;;;15.05;7.32;;;;;;;;;;4984346;28;20868;-85
2022/03/11 02:01:45;;;;;;;11.38;7.15;;;;;;;;;;4982589;28;20045;-87
2022/03/11 02:04:10;;;;;;;12.57;7.22;;;;;;;;;;4982863;28;20073;-85
2022/03/11 02:06:36;;;;;;;13.13;7.40;;;;;;;;;;4982590;28;20030;-84
2022/03/11 02:09:02;;;;;;;14.05;8.05;;;;;;;;;;4981028;28;20048;-84
2022/03/11 02:11:28;;;;;;;13.65;7.68;;;;;;;;;;4984399;28;20030;-87
2022/03/11 02:13:56;;;;;;;15.18;7.68;;;;;;;;;;5015837;28;20065;-85
2022/03/11 02:16:22;;;;;;;12.45;7.40;;;;;;;;;;4995990;28;20030;-84
2022/03/11 02:18:49;;;;;;;17.27;8.20;;;;;;;;;;4979651;28;20046;-85
2022/03/11 02:21:16;;;;;;;14.15;7.97;;;;;;;;;;4984361;28;20157;-86
2022/03/11 02:23:49;;;;;;;14.73;7.95;;;;;;;;;;5007489;28;20072;-88
2022/03/11 02:26:17;;;;;;;15.52;7.45;;;;;;;;;;4978333;28;20034;-86
2022/03/11 02:28:45;;;;;;;14.57;8.02;;;;;;;;;;5010168;28;20511;-85
2022/03/11 02:31:11;;;;;;;12.73;7.53;;;;;;;;;;4982946;28;20034;-84
2022/03/11 02:33:37;;;;;;;14.57;7.82;;;;;;;;;;5013994;28;20109;-85
2022/03/11 02:36:03;;;;;;;11.68;7.40;;;;;;;;;;4982674;28;20057;-84
2022/03/11 02:38:28;;;;;;;13.70;7.57;;;;;;;;;;4983321;28;20113;-85
2022/03/11 02:40:55;;;;;;;14.32;7.70;;;;;;;;;;4985312;28;21056;-84
2022/03/11 02:43:20;;;;;;;14.18;7.38;;;;;;;;;;4978238;28;20022;-86
2022/03/11 02:45:45;;;;;;;13.85;7.47;;;;;;;;;;4982752;28;20038;-83
2022/03/11 02:48:11;;;;;;;16.20;8.10;;;;;;;;;;4981636;28;20390;-88
2022/03/11 02:50:36;;;;;;;12.98;7.43;;;;;;;;;;4977001;28;20504;-88
2022/03/11 02:53:02;;;;;;;13.00;7.53;;;;;;;;;;4985360;28;20031;-84
2022/03/11 02:55:27;;;;;;;17.95;7.45;;;;;;;;;;4981157;28;20421;-83
2022/03/11 02:57:52;;;;;;;14.50;8.32;;;;;;;;;;5012521;28;20117;-86
2022/03/11 03:00:18;;;;;;;14.65;7.32;;;;;;;;;;4982246;28;20026;-83
2022/03/11 03:02:43;;;;;;;13.43;7.80;;;;;;;;;;4976914;28;20043;-86
2022/03/11 03:05:09;;;;;;;14.48;7.95;;;;;;;;;;5013796;28;20052;-85
2022/03/11 03:07:35;;;;;;;15.13;8.13;;;;;;;;;;5006522;28;20034;-83
2022/03/11 03:10:00;;;;;;;15.70;7.90;;;;;;;;;;4981856;28;20022;-89
2022/03/11 03:12:26;;;;;;;12.60;7.55;;;;;;;;;;4984774;28;20049;-85
2022/03/11 03:14:52;;;;;;;13.15;7.80;;;;;;;;;;4997614;28;20034;-84
2022/03/11 03:17:21;;;;;;;13.50;7.57;;;;;;;;;;4983536;28;20026;-83
2022/03/11 03:19:47;;;;;;;13.85;7.03;;;;;;;;;;4982455;28;20157;-83
2022/03/11 03:22:12;;;;;;;16.23;7.63;;;;;;;;;;4982126;28;20669;-83
2022/03/11 03:24:38;;;;;;;11.88;7.32;;;;;;;;;;4980322;28;20088;-83
2022/03/11 03:27:03;;;;;;;12.65;7.18;;;;;;;;;;4981513;28;20037;-84
2022/03/11 03:29:29;;;;;;;13.02;7.65;;;;;;;;;;4981453;28;20022;-84
2022/03/11 03:31:58;;;;;;;13.15;7.32;;;;;;;;;;4982204;28;20122;-85
2022/03/11 03:34:29;;;;;;;11.73;6.80;;;;;;;;;;5012377;28;20130;-85
2022/03/11 03:36:56;;;;;;;12.32;7.25;;;;;;;;;;5006492;28;20030;-88
2022/03/11 03:39:21;;;;;;;11.30;6.40;;;;;;;;;;4979769;28;20433;-88
2022/03/11 03:41:47;;;;;;;12.27;6.60;;;;;;;;;;4980689;28;20068;-88
2022/03/11 03:44:12;;;;;;;13.48;7.30;;;;;;;;;;4981544;28;20506;-82
2022/03/11 03:46:37;;;;;;;13.02;6.80;;;;;;;;;;4978913;28;20040;-83
2022/03/11 03:49:03;;;;;;;11.95;7.43;;;;;;;;;;4980059;28;20030;-83
2022/03/11 03:51:28;;;;;;;11.88;6.28;;;;;;;;;;4982022;28;20042;-84
2022/03/11 03:53:53;;;;;;;15.88;7.45;;;;;;;;;;4978679;28;20088;-84
2022/03/11 03:56:19;;;;;;;12.70;7.03;;;;;;;;;;4982230;28;20068;-82
2022/03/11 03:58:44;;;;;;;14.85;7.03;;;;;;;;;;4979465;28;20459;-88
2022/03/11 04:01:09;;;;;;;11.48;6.65;;;;;;;;;;4980238;28;20033;-84
2022/03/11 04:03:35;;;;;;;12.57;6.47;;;;;;;;;;4982479;28;20493;-89
2022/03/11 04:06:00;;;;;;;13.52;6.38;;;;;;;;;;5013937;28;20037;-83
2022/03/11 04:08:27;;;;;;;14.05;6.82;;;;;;;;;;4999364;28;20072;-83
2022/03/11 04:10:52;;;;;;;11.38;6.30;;;;;;;;;;4978084;28;20038;-89
2022/03/11 04:13:17;;;;;;;13.75;6.68;;;;;;;;;;4984699;28;20034;-84
2022/03/11 04:15:43;;;;;;;13.32;7.03;;;;;;;;;;5013784;28;20034;-83
2022/03/11 04:18:08;;;;;;;12.55;7.00;;;;;;;;;;5015632;28;20088;-84
2022/03/11 04:20:33;;;;;;;12.57;6.70;;;;;;;;;;4980246;28;20030;-83
2022/03/11 04:22:58;;;;;;;16.33;7.35;;;;;;;;;;4980163;28;20045;-85
2022/03/11 04:25:25;;;;;;;13.10;7.13;;;;;;;;;;4981192;28;20030;-89
2022/03/11 04:27:50;;;;;;;13.55;7.55;;;;;;;;;;4978321;28;20026;-87
2022/03/11 04:30:16;;;;;;;13.00;6.55;;;;;;;;;;4981580;28;20270;-84
2022/03/11 04:32:41;;;;;;;12.43;7.30;;;;;;;;;;4980755;28;20443;-84
2022/03/11 04:35:07;;;;;;;12.60;6.88;;;;;;;;;;5014443;28;20058;-83
2022/03/11 04:37:32;;;;;;;12.15;7.07;;;;;;;;;;4977975;28;20026;-84
2022/03/11 04:39:58;;;;;;;15.15;6.55;;;;;;;;;;4991134;28;20146;-85
2022/03/11 04:42:24;;;;;;;13.15;6.32;;;;;;;;;;4981431;28;20034;-83
2022/03/11 04:44:49;;;;;;;16.13;6.43;;;;;;;;;;4982331;28;20038;-89
2022/03/11 04:47:15;;;;;;;11.65;6.45;;;;;;;;;;4981044;28;20036;-88
2022/03/11 04:49:40;;;;;;;11.27;6.65;;;;;;;;;;4981097;28;20026;-83
2022/03/11 04:52:06;;;;;;;12.93;6.20;;;;;;;;;;4980758;28;20046;-83
2022/03/11 04:54:31;;;;;;;15.38;7.00;;;;;;;;;;4991428;28;20037;-87
2022/03/11 04:56:57;;;;;;;10.88;6.28;;;;;;;;;;5009822;28;20394;-86
2022/03/11 04:59:22;;;;;;;12.48;6.60;;;;;;;;;;4979500;28;20045;-89
2022/03/11 05:01:47;;;;;;;11.60;6.30;;;;;;;;;;4976038;28;20576;-84
2022/03/11 05:04:13;;;;;;;12.02;7.07;;;;;;;;;;4972243;28;20542;-88
2022/03/11 05:06:38;;;;;;;10.82;6.70;;;;;;;;;;4976533;28;20034;-85
2022/03/11 05:09:03;;;;;;;12.90;6.50;;;;;;;;;;4978635;28;20113;-86
2022/03/11 05:11:29;;;;;;;12.20;7.03;;;;;;;;;;4980384;28;20030;-83
2022/03/11 05:13:54;;;;;;;10.43;6.32;;;;;;;;;;5014420;28;20150;-84
2022/03/11 05:16:20;;;;;;;12.15;6.70;;;;;;;;;;4983811;28;20034;-82
2022/03/11 05:18:45;;;;;;;12.23;6.70;;;;;;;;;;4984496;28;20040;-81
2022/03/11 05:21:10;;;;;;;12.05;6.63;;;;;;;;;;4987974;28;20096;-87
2022/03/11 05:23:36;;;;;;;11.18;6.80;;;;;;;;;;4982869;28;20035;-87
2022/03/11 05:26:02;;;;;;;13.77;6.75;;;;;;;;;;4978702;28;20121;-85
2022/03/11 05:28:28;;;;;;;12.10;6.45;;;;;;;;;;4980447;28;20034;-84
2022/03/11 05:30:53;;;;;;;10.75;6.38;;;;;;;;;;4979372;28;20088;-84
2022/03/11 05:33:19;;;;;;;13.23;6.88;;;;;;;;;;4980017;28;20030;-82
2022/03/11 05:35:44;;;;;;;10.48;6.32;;;;;;;;;;4981723;28;20053;-88
2022/03/11 05:38:09;;;;;;;12.32;6.57;;;;;;;;;;4981074;28;20035;-87
2022/03/11 05:40:34;;;;;;;11.43;6.28;;;;;;;;;;4978703;28;20050;-85
2022/03/11 05:43:00;;;;;;;11.55;6.88;;;;;;;;;;4978449;28;20105;-88
2022/03/11 05:45:25;;;;;;;11.35;6.38;;;;;;;;;;4983092;28;20041;-89
2022/03/11 05:47:50;;;;;;;10.88;6.15;;;;;;;;;;5011325;28;20035;-88
2022/03/11 05:50:17;;;;;;;13.48;6.68;;;;;;;;;;4979071;28;20066;-89
2022/03/11 05:52:42;;;;;;;13.77;6.95;;;;;;;;;;4980273;28;20038;-84
2022/03/11 05:55:09;;;;;;;16.27;6.93;;;;;;;;;;4982230;28;20041;-87
2022/03/11 05:57:34;;;;;;;11.88;7.20;;;;;;;;;;5011369;28;20032;-83
2022/03/11 06:00:00;;;;;;;13.18;6.75;;;;;;;;;;4979331;28;20756;-84
2022/03/11 06:02:25;;;;;;;12.98;7.18;;;;;;;;;;4978257;28;20061;-84
2022/03/11 06:04:50;;;;;;;12.20;7.15;;;;;;;;;;4991443;28;20045;-83
2022/03/11 06:07:16;;;;;;;13.70;7.55;;;;;;;;;;4983368;28;20038;-89
2022/03/11 06:09:41;;;;;;;14.43;7.35;;;;;;;;;;4982306;28;20026;-86
2022/03/11 06:12:07;;;;;;;11.15;6.90;;;;;;;;;;4979781;28;20513;-80
2022/03/11 06:14:32;;;;;;;16.15;7.85;;;;;;;;;;4983086;28;20497;-83
2022/03/11 06:16:58;;;;;;;14.00;6.82;;;;;;;;;;4985500;28;20034;-82
2022/03/11 06:19:23;;;;;;;15.25;7.28;;;;;;;;;;4987618;28;20041;-82
2022/03/11 06:21:49;;;;;;;13.07;6.85;;;;;;;;;;4987245;28;20033;-81
2022/03/11 06:24:14;;;;;;;14.25;6.90;;;;;;;;;;4986169;28;20497;-82
2022/03/11 06:26:40;;;;;;;12.10;6.78;;;;;;;;;;4983915;28;20196;-86
2022/03/11 06:29:07;;;;;;;12.90;7.45;;;;;;;;;;5009994;28;22485;-85
2022/03/11 06:31:32;;;;;;;13.25;6.78;;;;;;;;;;4982389;28;20042;-81
2022/03/11 06:33:59;;;;;;;13.18;7.50;;;;;;;;;;4983754;28;20464;-80
2022/03/11 06:36:25;;;;;;;14.10;7.05;;;;;;;;;;4988568;28;20030;-80
2022/03/11 06:38:50;;;;;;;14.43;8.05;;;;;;;;;;4981879;28;20089;-83
2022/03/11 06:41:17;;;;;;;13.50;7.35;;;;;;;;;;4984044;28;20030;-80
2022/03/11 06:43:42;;;;;;;12.75;7.35;;;;;;;;;;4986081;28;20034;-85
2022/03/11 06:46:08;;;;;;;13.30;7.45;;;;;;;;;;4983840;28;20397;-87
2022/03/11 06:48:34;;;;;;;12.15;7.30;;;;;;;;;;5001343;28;20478;-81
2022/03/11 06:51:04;;;;;;;12.52;7.43;;;;;;;;;;4986199;28;20034;-81
2022/03/11 06:53:30;;;;;;;13.10;7.20;;;;;;;;;;4986537;28;20030;-83
2022/03/11 06:55:56;;;;;;;12.90;7.82;;;;;;;;;;4985629;28;20478;-83
2022/03/11 06:58:21;;;;;;;15.80;8.00;;;;;;;;;;4985357;28;20572;-84
2022/03/11 07:00:46;;;;;;;15.45;7.82;;;;;;;;;;4986542;28;20022;-82
2022/03/11 07:03:12;;;;;;;15.85;9.15;;;;;;;;;;4986765;28;20488;-84
2022/03/11 07:05:37;;;;;;;13.52;7.50;;;;;;;;;;4987612;28;20112;-86
2022/03/11 07:08:03;;;;;;;17.42;7.55;;;;;;;;;;4979560;28;20529;-83
2022/03/11 07:10:28;;;;;;;15.10;8.00;;;;;;;;;;5016419;28;20448;-83
2022/03/11 07:12:53;;;;;;;15.75;8.40;;;;;;;;;;4977855;28;20026;-82
2022/03/11 07:15:19;;;;;;;14.55;8.02;;;;;;;;;;5016932;28;20025;-81
2022/03/11 07:17:46;;;;;;;13.20;7.72;;;;;;;;;;4984187;28;20489;-83
2022/03/11 07:20:11;;;;;;;14.40;8.35;;;;;;;;;;5014481;28;20088;-84
2022/03/11 07:22:37;;;;;;;14.43;8.45;;;;;;;;;;4984455;28;20038;-84
2022/03/11 07:25:03;;;;;;;15.52;8.00;;;;;;;;;;4982993;28;20058;-83
2022/03/11 07:27:28;;;;;;;14.80;7.88;;;;;;;;;;4975390;28;20062;-83
2022/03/11 07:29:56;;;;;;;14.50;7.57;;;;;;;;;;5009178;28;20030;-83
2022/03/11 07:32:22;;;;;;;13.30;8.40;;;;;;;;;;4982876;28;20153;-83
2022/03/11 07:34:47;;;;;;;14.68;8.60;;;;;;;;;;4975608;28;20288;-83
2022/03/11 07:37:13;;;;;;;22.48;9.50;;;;;;;;;;5008600;28;20141;-82
2022/03/11 07:39:42;;;;;;;14.93;8.60;;;;;;;;;;4975952;28;20272;-82
2022/03/11 07:42:08;;;;;;;14.15;8.48;;;;;;;;;;4975521;28;20398;-81
2022/03/11 07:44:33;;;;;;;16.38;8.70;;;;;;;;;;4972423;28;20486;-83
2022/03/11 07:46:59;;;;;;;18.67;9.13;;;;;;;;;;4982789;28;20040;-85
2022/03/11 07:49:27;;;;;;;14.10;8.68;;;;;;;;;;4986779;28;20026;-82
2022/03/11 07:51:52;;;;;;;14.68;8.93;;;;;;;;;;5019139;28;20445;-81
2022/03/11 07:54:18;;;;;;;17.38;8.48;;;;;;;;;;4978270;28;20120;-82
2022/03/11 07:56:43;;;;;;;16.45;9.30;;;;;;;;;;4980471;28;20423;-85
2022/03/11 07:59:08;;;;;;;14.90;8.68;;;;;;;;;;4981731;28;20568;-81
2022/03/11 08:01:33;;;;;;;15.60;9.55;;;;;;;;;;4983523;28;20049;-82
2022/03/11 08:03:59;;;;;;;16.67;8.70;;;;;;;;;;4988551;28;20030;-86
2022/03/11 08:06:24;;;;;;;16.02;9.18;;;;;;;;;;4982490;28;20307;-83
2022/03/11 08:08:49;;;;;;;15.48;8.98;;;;;;;;;;4991382;28;20502;-85
2022/03/11 08:11:15;;;;;;;15.70;9.25;;;;;;;;;;5018748;28;20029;-84
2022/03/11 08:13:41;;;;;;;18.83;9.85;;;;;;;;;;4988608;28;20038;-87
2022/03/11 08:16:07;;;;;;;16.02;9.05;;;;;;;;;;5024064;28;20026;-81
2022/03/11 08:18:33;;;;;;;14.50;9.05;;;;;;;;;;4989406;28;20104;-81
2022/03/11 08:20:59;;;;;;;14.25;9.05;;;;;;;;;;4989531;28;20049;-88
2022/03/11 08:23:24;;;;;;;16.20;10.05;;;;;;;;;;4988928;28;20034;-87
2022/03/11 08:25:50;;;;;;;16.95;9.40;;;;;;;;;;4988447;28;20034;-83
2022/03/11 08:28:16;;;;;;;15.32;9.05;;;;;;;;;;4989333;28;20044;-84
2022/03/11 08:30:43;;;;;;;15.15;9.13;;;;;;;;;;4986360;28;20022;-88
2022/03/11 08:33:10;;;;;;;16.40;9.63;;;;;;;;;;4987655;28;20034;-84
2022/03/11 08:35:35;;;;;;;16.05;10.23;;;;;;;;;;4986364;28;20030;-88
2022/03/11 08:38:04;;;;;;;16.98;9.63;;;;;;;;;;4991082;28;20018;-87
2022/03/11 08:40:29;;;;;;;15.57;9.63;;;;;;;;;;4985643;28;20038;-83
2022/03/11 08:42:55;;;;;;;17.60;9.77;;;;;;;;;;5016298;28;20371;-85
2022/03/11 08:45:21;;;;;;;18.73;10.13;;;;;;;;;;4991266;28;20066;-84
2022/03/11 08:47:50;;;;;;;17.73;9.88;;;;;;;;;;4990455;28;20461;-86
2022/03/11 08:50:17;;;;;;;16.70;9.95;;;;;;;;;;4984517;28;20023;-88
2022/03/11 08:52:43;;;;;;;18.30;10.27;;;;;;;;;;4990867;28;20526;-86
2022/03/11 08:55:09;;;;;;;19.83;10.27;;;;;;;;;;4988563;28;20035;-83
2022/03/11 08:57:35;;;;;;;18.20;9.98;;;;;;;;;;4988697;28;20038;-84
2022/03/11 09:00:06;;;;;;;18.13;9.40;;;;;;;;;;4991677;28;20430;-86
2022/03/11 09:02:32;;;;;;;20.95;9.73;;;;;;;;;;4990137;28;20038;-83
2022/03/11 09:04:57;;;;;;;17.63;10.68;;;;;;;;;;4989205;28;20030;-84
2022/03/11 09:07:29;;;;;;;17.85;9.82;;;;;;;;;;4989669;28;20033;-83
2022/03/11 09:09:54;;;;;;;18.00;9.95;;;;;;;;;;4987822;28;20022;-83
2022/03/11 09:12:20;;;;;;;16.55;9.70;;;;;;;;;;5005673;28;20426;-86
2022/03/11 09:14:45;;;;;;;17.35;10.95;;;;;;;;;;4994371;28;20027;-84
2022/03/11 09:17:10;;;;;;;17.33;10.75;;;;;;;;;;4985876;28;20045;-84
2022/03/11 09:19:36;;;;;;;17.63;10.57;;;;;;;;;;5020025;28;20037;-86
2022/03/11 09:22:01;;;;;;;22.10;10.75;;;;;;;;;;4977365;28;20054;-84
2022/03/11 09:24:27;;;;;;;18.08;10.98;;;;;;;;;;5016260;28;20030;-85
2022/03/11 09:26:52;;;;;;;21.20;11.60;;;;;;;;;;5011001;28;20026;-86
2022/03/11 09:29:17;;;;;;;21.90;12.82;;;;;;;;;;4984479;28;20082;-83
2022/03/11 09:31:43;;;;;;;22.95;11.90;;;;;;;;;;4987650;28;20037;-87
2022/03/11 09:34:08;;;;;;;23.95;11.93;;;;;;;;;;4981207;28;20117;-87
2022/03/11 09:36:33;;;;;;;17.77;11.25;;;;;;;;;;4987410;28;20411;-88
2022/03/11 09:38:59;;;;;;;21.30;11.80;;;;;;;;;;4982908;28;20481;-86
2022/03/11 09:41:27;;;;;;;17.83;11.55;;;;;;;;;;4985758;28;20054;-85
2022/03/11 09:43:55;;;;;;;17.20;11.00;;;;;;;;;;4984158;28;20030;-87
2022/03/11 09:46:21;;;;;;;17.98;11.35;;;;;;;;;;4982866;28;20022;-85
2022/03/11 09:48:46;;;;;;;20.38;10.95;;;;;;;;;;4987208;28;20449;-86
2022/03/11 09:51:12;;;;;;;20.00;11.48;;;;;;;;;;4985128;28;20493;-86
2022/03/11 09:53:37;;;;;;;18.77;11.50;;;;;;;;;;4983521;28;20151;-86
2022/03/11 09:56:03;;;;;;;18.83;10.73;;;;;;;;;;4986151;28;20478;-87
2022/03/11 09:58:29;;;;;;;18.67;11.23;;;;;;;;;;4987669;28;20422;-87
2022/03/11 10:00:55;;;;;;;20.48;11.07;;;;;;;;;;5001172;28;20117;-85
2022/03/11 10:03:20;;;;;;;18.23;10.82;;;;;;;;;;4991489;28;20079;-84
2022/03/11 10:05:48;;;;;;;19.65;10.60;;;;;;;;;;4990491;28;20050;-88
2022/03/11 10:08:14;;;;;;;18.10;10.90;;;;;;;;;;4990910;28;20032;-87
2022/03/11 10:10:39;;;;;;;20.20;11.25;;;;;;;;;;4988492;28;20026;-83
2022/03/11 10:13:07;;;;;;;18.45;11.52;;;;;;;;;;4983633;28;20034;-84
2022/03/11 10:15:33;;;;;;;17.15;11.23;;;;;;;;;;4991189;28;20033;-86
2022/03/11 10:18:02;;;;;;;18.83;11.15;;;;;;;;;;4987482;28;20562;-84
2022/03/11 10:20:30;;;;;;;18.13;11.70;;;;;;;;;;4991076;28;20462;-87
2022/03/11 10:22:57;;;;;;;19.70;11.40;;;;;;;;;;4987773;28;20034;-86
2022/03/11 10:25:25;;;;;;;18.52;11.18;;;;;;;;;;4990508;28;20023;-89
2022/03/11 10:28:10;;;;;;;17.25;10.90;;;;;;;;;;4984926;28;20038;-83
2022/03/11 10:30:38;;;;;;;23.58;11.68;;;;;;;;;;5003921;28;20100;-83
2022/03/11 10:33:06;;;;;;;23.08;11.73;;;;;;;;;;4988567;28;20038;-86
2022/03/11 10:35:34;;;;;;;17.73;11.25;;;;;;;;;;4989526;28;20026;-88
2022/03/11 10:38:08;;;;;;;23.02;11.57;;;;;;;;;;4987117;28;20399;-83
2022/03/11 10:40:39;;;;;;;18.40;11.32;;;;;;;;;;5022121;28;20046;-84
2022/03/11 10:43:09;;;;;;;21.30;11.43;;;;;;;;;;4988041;28;20038;-84
2022/03/11 10:45:51;;;;;;;18.42;11.38;;;;;;;;;;4990388;28;20454;-84
2022/03/11 10:48:18;;;;;;;18.67;10.93;;;;;;;;;;4986411;28;20128;-83
2022/03/11 10:50:44;;;;;;;20.23;11.68;;;;;;;;;;5002544;28;20610;-86
2022/03/11 10:53:11;;;;;;;22.17;11.07;;;;;;;;;;4987971;28;20061;-83
2022/03/11 10:55:40;;;;;;;20.00;11.38;;;;;;;;;;4986521;28;20454;-83
2022/03/11 10:58:06;;;;;;;19.60;11.35;;;;;;;;;;4987363;28;20125;-84
2022/03/11 11:00:38;;;;;;;28.75;11.88;;;;;;;;;;4988949;28;20066;-87
2022/03/11 11:03:05;;;;;;;22.27;11.63;;;;;;;;;;4988486;28;20476;-83
2022/03/11 11:05:31;;;;;;;24.40;11.50;;;;;;;;;;4984642;28;20034;-87
2022/03/11 11:07:58;;;;;;;20.27;12.07;;;;;;;;;;4986572;28;20454;-84
2022/03/11 11:10:25;;;;;;;18.90;11.68;;;;;;;;;;4984504;28;20023;-83
2022/03/11 11:12:52;;;;;;;17.85;11.82;;;;;;;;;;4990276;28;20046;-85
2022/03/11 11:15:18;;;;;;;27.75;11.48;;;;;;;;;;4985923;28;20033;-85
2022/03/11 11:17:45;;;;;;;16.52;11.27;;;;;;;;;;4986898;28;20026;-89
2022/03/11 11:20:20;;;;;;;20.85;11.55;;;;;;;;;;4987088;28;20049;-81
2022/03/11 11:22:47;;;;;;;19.23;11.45;;;;;;;;;;4992994;28;20030;-82
2022/03/11 11:25:15;;;;;;;22.25;12.07;;;;;;;;;;4981181;28;20018;-85
2022/03/11 11:27:42;;;;;;;18.45;12.27;;;;;;;;;;4984373;28;20034;-82
2022/03/11 11:30:08;;;;;;;19.42;11.65;;;;;;;;;;4986364;28;20399;-87
2022/03/11 11:32:35;;;;;;;16.08;10.85;;;;;;;;;;4985758;28;20555;-82
2022/03/11 11:35:39;;;;;;;20.70;12.00;;;;;;;;;;4987700;28;20105;-83
2022/03/11 11:38:09;;;;;;;17.95;11.38;;;;;;;;;;5016329;28;20045;-82
2022/03/11 11:40:37;;;;;;;20.85;11.57;;;;;;;;;;4981778;28;20050;-83
2022/03/11 11:43:27;;;;;;;22.77;12.35;;;;;;;;;;4996784;28;20582;-85
2022/03/11 11:46:08;;;;;;;17.75;11.60;;;;;;;;;;5018173;28;20041;-81
2022/03/11 11:48:35;;;;;;;20.33;12.52;;;;;;;;;;5019759;28;20038;-81
2022/03/11 11:51:03;;;;;;;20.00;12.13;;;;;;;;;;5015960;28;20045;-83
2022/03/11 11:53:33;;;;;;;19.65;13.10;;;;;;;;;;4985701;28;20388;-84
2022/03/11 11:55:59;;;;;;;20.55;12.15;;;;;;;;;;4988292;28;20077;-84
2022/03/11 11:58:25;;;;;;;23.58;12.90;;;;;;;;;;4988348;28;20470;-81
2022/03/11 12:00:55;;;;;;;27.20;12.70;;;;;;;;;;4985826;28;20037;-82
2022/03/11 12:03:40;;;;;;;22.10;12.85;;;;;;;;;;4987514;28;20363;-84
2022/03/11 12:06:06;;;;;;;23.90;12.38;;;;;;;;;;5020795;28;20088;-87
2022/03/11 12:08:34;;;;;;;22.95;13.15;;;;;;;;;;4992520;28;20421;-85
2022/03/11 12:11:00;;;;;;;19.60;12.93;;;;;;;;;;4986434;28;20486;-81
2022/03/11 12:13:32;;;;;;;22.10;12.45;;;;;;;;;;4985443;28;20034;-86
2022/03/11 12:15:57;;;;;;;22.55;13.90;;;;;;;;;;4990615;28;20546;-85
2022/03/11 12:18:44;;;;;;;20.42;12.90;;;;;;;;;;4987625;28;20027;-81
2022/03/11 12:21:40;;;;;;;18.50;13.10;;;;;;;;;;4983914;28;20503;-85
2022/03/11 12:24:31;;;;;;;20.80;12.55;;;;;;;;;;4982915;28;20026;-77
2022/03/11 12:26:56;;;;;;;21.63;12.70;;;;;;;;;;4987004;28;20449;-79
2022/03/11 12:29:35;;;;;;;19.33;12.88;;;;;;;;;;4986277;28;20038;-78
2022/03/11 12:32:06;;;;;;;21.55;14.07;;;;;;;;;;4985979;28;20760;-78
2022/03/11 12:34:32;;;;;;;20.15;13.00;;;;;;;;;;4986234;28;20026;-86
2022/03/11 12:36:57;;;;;;;25.50;14.23;;;;;;;;;;4986905;28;20031;-79
2022/03/11 12:39:28;;;;;;;22.55;12.85;;;;;;;;;;4992619;28;20034;-77
2022/03/11 12:41:55;;;;;;;24.35;14.02;;;;;;;;;;5004793;28;20101;-79
2022/03/11 12:44:20;;;;;;;20.10;13.60;;;;;;;;;;4990466;28;20148;-79
2022/03/11 12:46:45;;;;;;;23.58;13.70;;;;;;;;;;4987217;28;20031;-79
2022/03/11 12:49:13;;;;;;;25.65;14.45;;;;;;;;;;4990224;28;20056;-86
2022/03/11 12:51:38;;;;;;;26.13;14.55;;;;;;;;;;4987844;28;20023;-84
2022/03/11 12:54:15;;;;;;;22.52;14.35;;;;;;;;;;4988859;28;20456;-87
2022/03/11 12:56:40;;;;;;;20.23;14.13;;;;;;;;;;5020175;28;20410;-77
2022/03/11 12:59:05;;;;;;;20.00;13.50;;;;;;;;;;4987800;28;20025;-87
2022/03/11 13:01:31;;;;;;;21.63;13.50;;;;;;;;;;5000028;28;20037;-78
2022/03/11 13:03:56;;;;;;;19.80;13.55;;;;;;;;;;4987871;28;20068;-86
2022/03/11 13:06:21;;;;;;;20.13;13.75;;;;;;;;;;4985744;28;20030;-77
2022/03/11 13:08:47;;;;;;;19.33;12.57;;;;;;;;;;4983155;28;20038;-79
2022/03/11 13:11:14;;;;;;;21.65;13.23;;;;;;;;;;4983770;28;20030;-85
2022/03/11 13:13:40;;;;;;;24.50;14.05;;;;;;;;;;4986123;28;20486;-87
2022/03/11 13:16:06;;;;;;;22.80;13.18;;;;;;;;;;4983020;28;20030;-82
2022/03/11 13:18:37;;;;;;;22.08;12.77;;;;;;;;;;4983467;28;20332;-77
2022/03/11 13:21:10;;;;;;;23.38;13.40;;;;;;;;;;4980368;28;20018;-85
2022/03/11 13:23:38;;;;;;;20.67;12.45;;;;;;;;;;5013294;28;20030;-77
2022/03/11 13:26:05;;;;;;;21.23;13.05;;;;;;;;;;4982812;28;20026;-79
2022/03/11 13:28:36;;;;;;;22.25;13.70;;;;;;;;;;4986561;28;20034;-78
2022/03/11 13:31:15;;;;;;;22.15;13.48;;;;;;;;;;4986034;28;20049;-77
2022/03/11 13:33:46;;;;;;;21.35;12.70;;;;;;;;;;4988636;28;20034;-77
2022/03/11 13:36:36;;;;;;;20.70;13.98;;;;;;;;;;4991674;28;20026;-79
2022/03/11 13:39:11;;;;;;;19.52;12.10;;;;;;;;;;4980664;28;20041;-83
2022/03/11 13:41:42;;;;;;;22.27;13.77;;;;;;;;;;4987348;28;20526;-83
2022/03/11 13:44:11;;;;;;;25.15;13.10;;;;;;;;;;4993499;28;20026;-80
2022/03/11 13:46:39;;;;;;;20.83;13.27;;;;;;;;;;4992957;28;20022;-86
2022/03/11 13:49:10;;;;;;;18.88;12.98;;;;;;;;;;4986723;28;20030;-84
2022/03/11 13:51:48;;;;;;;19.05;12.82;;;;;;;;;;5004128;28;20483;-86
2022/03/11 13:54:28;;;;;;;21.35;12.98;;;;;;;;;;4990135;28;20073;-83
2022/03/11 13:56:58;;;;;;;18.30;12.57;;;;;;;;;;4992489;28;20054;-82
2022/03/11 13:59:31;;;;;;;21.00;13.15;;;;;;;;;;4997291;28;20133;-81
2022/03/11 14:02:10;;;;;;;18.90;12.60;;;;;;;;;;4987490;28;20565;-83
2022/03/11 14:04:35;;;;;;;19.63;12.60;;;;;;;;;;4990105;28;20077;-80
2022/03/11 14:07:12;;;;;;;19.70;12.43;;;;;;;;;;4982620;28;20042;-81
2022/03/11 14:09:38;;;;;;;20.60;13.10;;;;;;;;;;4992382;28;20022;-81
2022/03/11 14:12:04;;;;;;;20.48;12.20;;;;;;;;;;4986279;28;20435;-82
2022/03/11 14:14:31;;;;;;;23.38;13.30;;;;;;;;;;4989850;28;20026;-83
2022/03/11 14:17:02;;;;;;;17.20;12.23;;;;;;;;;;4988296;28;20029;-80
2022/03/11 14:19:28;;;;;;;19.00;12.25;;;;;;;;;;4989986;28;20109;-82
2022/03/11 14:21:54;;;;;;;19.40;12.52;;;;;;;;;;4990583;28;20034;-80
2022/03/11 14:24:20;;;;;;;17.17;12.32;;;;;;;;;;4981903;28;20121;-86